Ramon Margalef — EAEF — position and weather

sailwx.info

Track history (hours):
 
Tides and Currents Weather Stations Pressure Air Temp Water Temp Dewpoint Dewpoint Depression Visibility Wind Speed Wind Dir Waves Ship Positions

Ramon Margalef

Last reported at 2018-Jun-23 06:26 UTC. Time now 2018-Jun-23 06:27 UTC.
Position N 43°34' W 005°42'.

Length 46 m; draft 5.5 m.

Type: Other ship. MMSI: 224511000.

Date/timePositionNaut miles runAvg speedWind from/ knotsBaromVisibWave heightAir tempDewpointWater temp
2018-Jun-23 06:26N 43°34' W 005°42'0 0.0
2018-Jun-23 04:33N 43°34' W 005°42'0 0.0
2018-Jun-23 04:21N 43°34' W 005°42'0 0.0
2018-Jun-23 03:57N 43°34' W 005°42'0 0.0
2018-Jun-23 02:16N 43°34' W 005°42'0 0.0
2018-Jun-23 01:59N 43°34' W 005°42'0 0.0
2018-Jun-23 01:29N 43°34' W 005°42'0 0.0
2018-Jun-22 20:50N 43°34' W 005°42'0 0.0
2018-Jun-22 19:27N 43°34' W 005°42'0 0.0
2018-Jun-22 18:40N 43°34' W 005°42'0 0.0
2018-Jun-22 18:16N 43°34' W 005°42'0 0.0
2018-Jun-22 17:58N 43°34' W 005°42'0 0.0
2018-Jun-22 15:32N 43°34' W 005°42'0 0.0
2018-Jun-22 15:30N 43°34' W 005°42'2 4.2
2018-Jun-22 15:00N 43°36' W 005°40'5 9.0
2018-Jun-22 14:30N 43°39' W 005°45'5 9.6
2018-Jun-22 13:57N 43°42' W 005°51'5 9.8
2018-Jun-22 13:28N 43°42' W 005°57'610.0
2018-Jun-22 12:54N 43°43' W 006°05'5 9.7
2018-Jun-22 12:26N 43°43' W 006°11'  
Track history (hours):
 
Tides and Currents Weather Stations Pressure Air Temp Water Temp Dewpoint Dewpoint Depression Visibility Wind Speed Wind Dir Waves Ship Positions

Ramon Margalef

Last reported at 2018-Jun-23 06:26 UTC. Time now 2018-Jun-23 06:27 UTC.
Position N 43°34' W 005°42'.

Length 46 m; draft 5.5 m.

Type: Other ship. MMSI: 224511000.

Date/timePositionNaut miles runAvg speedWind from/ knotsBaromVisibWave heightAir tempDewpointWater temp
2018-Jun-23 06:26N 43°34' W 005°42'0 0.0
2018-Jun-23 04:33N 43°34' W 005°42'0 0.0
2018-Jun-23 04:21N 43°34' W 005°42'0 0.0
2018-Jun-23 03:57N 43°34' W 005°42'0 0.0
2018-Jun-23 02:16N 43°34' W 005°42'0 0.0
2018-Jun-23 01:59N 43°34' W 005°42'0 0.0
2018-Jun-23 01:29N 43°34' W 005°42'0 0.0
2018-Jun-22 20:50N 43°34' W 005°42'0 0.0
2018-Jun-22 19:27N 43°34' W 005°42'0 0.0
2018-Jun-22 18:40N 43°34' W 005°42'0 0.0
2018-Jun-22 18:16N 43°34' W 005°42'0 0.0
2018-Jun-22 17:58N 43°34' W 005°42'0 0.0
2018-Jun-22 15:32N 43°34' W 005°42'0 0.0
2018-Jun-22 15:30N 43°34' W 005°42'2 4.2
2018-Jun-22 15:00N 43°36' W 005°40'5 9.0
2018-Jun-22 14:30N 43°39' W 005°45'5 9.6
2018-Jun-22 13:57N 43°42' W 005°51'5 9.8
2018-Jun-22 13:28N 43°42' W 005°57'610.0
2018-Jun-22 12:54N 43°43' W 006°05'5 9.7
2018-Jun-22 12:26N 43°43' W 006°11'  

Dump ship's entire track history